createdAt,value
2019-02-10T00:00:43.742Z,39.92
2019-02-10T00:03:15.210Z,43.63
2019-02-10T00:05:46.617Z,41.40
2019-02-10T00:08:18.090Z,41.85
2019-02-10T00:10:49.617Z,41.65
2019-02-10T00:13:28.939Z,41.47
2019-02-10T00:16:01.073Z,41.85
2019-02-10T00:18:32.755Z,42.17
2019-02-10T00:21:04.137Z,43.17
2019-02-10T00:23:35.660Z,43.13
2019-02-10T00:26:07.294Z,45.43
2019-02-10T00:28:38.855Z,43.13
2019-02-10T00:31:10.532Z,43.02
2019-02-10T00:33:42.059Z,42.10
2019-02-10T00:36:13.702Z,42.40
2019-02-10T00:38:45.211Z,43.98
2019-02-10T00:41:16.580Z,46.02
2019-02-10T00:43:48.151Z,47.53
2019-02-10T00:46:19.583Z,45.20
2019-02-10T00:48:51.356Z,44.33
2019-02-10T00:51:23.010Z,44.85
2019-02-10T00:53:54.499Z,45.98
2019-02-10T00:56:25.942Z,43.28
2019-02-10T00:58:57.791Z,41.43
2019-02-10T01:01:29.073Z,49.35
2019-02-10T01:04:00.734Z,46.18
2019-02-10T01:06:32.391Z,42.83
2019-02-10T01:09:05.071Z,42.08
2019-02-10T01:11:36.462Z,43.00
2019-02-10T01:14:07.968Z,46.00
2019-02-10T01:16:39.182Z,43.28
2019-02-10T01:19:11.767Z,44.05
2019-02-10T01:21:45.675Z,43.20
2019-02-10T01:24:17.150Z,45.52
2019-02-10T01:26:48.726Z,47.05
2019-02-10T01:29:21.823Z,48.78
2019-02-10T01:31:53.369Z,46.18
2019-02-10T01:34:24.922Z,47.73
2019-02-10T01:36:56.668Z,43.42
2019-02-10T01:39:28.284Z,45.08
2019-02-10T01:41:59.677Z,43.38
2019-02-10T01:44:31.569Z,42.80
2019-02-10T01:47:03.484Z,46.77
2019-02-10T01:49:35.208Z,46.23
2019-02-10T01:52:07.835Z,47.67
2019-02-10T01:54:39.491Z,42.60
2019-02-10T01:57:11.013Z,47.35
2019-02-10T01:59:42.398Z,53.80
2019-02-10T02:02:14.351Z,57.30
2019-02-10T02:04:46.078Z,63.33
2019-02-10T02:07:18.211Z,76.00
2019-02-10T02:09:49.846Z,68.95
2019-02-10T02:12:21.495Z,51.20
2019-02-10T02:14:53.029Z,47.88
2019-02-10T02:17:24.493Z,44.75
2019-02-10T02:19:56.229Z,40.92
2019-02-10T02:22:27.841Z,45.43
2019-02-10T02:24:59.228Z,44.63
2019-02-10T02:27:30.669Z,43.05
2019-02-10T02:30:02.219Z,48.35
2019-02-10T02:32:33.760Z,43.30
2019-02-10T02:35:05.381Z,43.68
2019-02-10T02:37:37.856Z,45.98
2019-02-10T02:40:11.203Z,49.33
2019-02-10T02:42:42.719Z,46.63
2019-02-10T02:45:14.414Z,45.43
2019-02-10T02:47:46.647Z,49.00
2019-02-10T02:50:18.267Z,49.90
2019-02-10T02:52:49.425Z,51.05
2019-02-10T02:55:21.025Z,46.37
2019-02-10T02:57:52.432Z,46.33
2019-02-10T03:00:24.252Z,46.00
2019-02-10T03:02:55.825Z,48.90
2019-02-10T03:05:28.341Z,50.98
2019-02-10T03:07:59.651Z,46.18
2019-02-10T03:10:31.207Z,51.10
2019-02-10T03:13:02.766Z,51.30
2019-02-10T03:15:34.325Z,49.15
2019-02-10T03:18:05.708Z,51.35
2019-02-10T03:20:37.207Z,49.42
2019-02-10T03:23:08.461Z,49.27
2019-02-10T03:25:40.171Z,49.23
2019-02-10T03:28:11.933Z,50.20
2019-02-10T03:30:43.306Z,49.80
2019-02-10T03:33:15.066Z,53.33
2019-02-10T03:35:47.264Z,51.77
2019-02-10T03:38:18.794Z,49.75
2019-02-10T03:40:50.307Z,49.25
2019-02-10T03:43:21.866Z,52.60
2019-02-10T03:45:53.378Z,50.65
2019-02-10T03:48:24.935Z,53.15
2019-02-10T03:50:56.839Z,49.60
2019-02-10T03:53:28.321Z,53.13
2019-02-10T03:55:59.788Z,47.20
2019-02-10T03:58:31.352Z,54.45
2019-02-10T04:01:02.759Z,50.43
2019-02-10T04:03:34.357Z,54.00
2019-02-10T04:06:05.738Z,55.35
2019-02-10T04:08:37.451Z,49.65
2019-02-10T04:11:09.088Z,60.30
2019-02-10T04:13:40.676Z,49.23
2019-02-10T04:16:13.081Z,56.90
2019-02-10T04:18:44.718Z,56.00
2019-02-10T04:21:17.376Z,55.30
2019-02-10T04:23:48.979Z,59.98
2019-02-10T04:26:21.529Z,56.05
2019-02-10T04:28:53.286Z,60.33
2019-02-10T04:31:24.929Z,56.10
2019-02-10T04:33:56.603Z,58.28
2019-02-10T04:36:28.045Z,53.48
2019-02-10T04:38:59.726Z,58.00
2019-02-10T04:41:31.064Z,52.90
2019-02-10T04:44:02.607Z,47.75
2019-02-10T04:46:33.838Z,47.98
2019-02-10T04:49:05.237Z,51.53
2019-02-10T04:51:48.008Z,53.15
2019-02-10T04:54:19.278Z,57.15
2019-02-10T04:56:51.475Z,52.40
2019-02-10T04:59:23.029Z,46.33
2019-02-10T05:01:54.658Z,49.67
2019-02-10T05:04:26.135Z,49.75
2019-02-10T05:06:57.441Z,60.38
2019-02-10T05:09:29.013Z,67.25
2019-02-10T05:12:00.563Z,62.88
2019-02-10T05:14:32.234Z,59.33
2019-02-10T05:17:03.794Z,52.60
2019-02-10T05:19:35.277Z,51.98
2019-02-10T05:22:07.047Z,50.98
2019-02-10T05:24:38.494Z,55.58
2019-02-10T05:27:10.088Z,56.60
2019-02-10T05:29:41.767Z,53.85
2019-02-10T05:32:14.952Z,58.58
2019-02-10T05:34:46.581Z,66.65
2019-02-10T05:37:18.140Z,61.30
2019-02-10T05:39:50.633Z,73.97
2019-02-10T05:42:22.152Z,68.22
2019-02-10T05:44:53.862Z,60.48
2019-02-10T05:47:25.557Z,56.13
2019-02-10T05:49:57.139Z,59.15
2019-02-10T05:52:29.623Z,57.33
2019-02-10T05:55:01.273Z,61.65
2019-02-10T05:57:33.809Z,76.35
2019-02-10T06:00:05.621Z,63.50
2019-02-10T06:02:37.428Z,67.87
2019-02-10T06:05:18.605Z,64.82
2019-02-10T06:07:50.589Z,62.73
2019-02-10T06:10:22.172Z,59.42
2019-02-10T06:12:53.783Z,50.40
2019-02-10T06:15:25.322Z,47.57
2019-02-10T06:17:56.893Z,66.70
2019-02-10T06:20:28.549Z,66.57
2019-02-10T06:23:00.012Z,49.35
2019-02-10T06:25:31.657Z,51.75
2019-02-10T06:28:03.332Z,48.25
2019-02-10T06:30:35.015Z,49.60
2019-02-10T06:33:06.750Z,51.23
2019-02-10T06:35:39.055Z,55.08
2019-02-10T06:38:10.639Z,53.35
2019-02-10T06:40:42.205Z,49.50
2019-02-10T06:43:13.576Z,51.37
2019-02-10T06:45:46.042Z,54.67
2019-02-10T06:48:17.839Z,54.87
2019-02-10T06:50:49.652Z,60.48
2019-02-10T06:53:21.211Z,46.67
2019-02-10T06:55:54.725Z,48.60
2019-02-10T06:58:26.246Z,49.37
2019-02-10T07:01:25.531Z,49.50
2019-02-10T07:04:09.725Z,48.50
2019-02-10T07:06:41.394Z,51.95
2019-02-10T07:09:13.063Z,50.17
2019-02-10T07:11:44.770Z,56.20
2019-02-10T07:14:28.191Z,52.77
2019-02-10T07:17:29.932Z,49.67
2019-02-10T07:20:36.821Z,50.53
2019-02-10T07:23:34.805Z,51.53
2019-02-10T07:26:17.362Z,49.33
2019-02-10T07:29:11.150Z,52.90
2019-02-10T07:32:00.431Z,50.60
2019-02-10T07:34:58.245Z,55.67
2019-02-10T07:38:01.985Z,54.40
2019-02-10T07:41:00.754Z,50.77
2019-02-10T07:44:08.908Z,52.73
2019-02-10T07:47:15.914Z,55.97
2019-02-10T07:50:14.488Z,59.17
2019-02-10T07:53:21.091Z,53.47
2019-02-10T07:56:35.484Z,64.97
2019-02-10T08:00:13.016Z,53.87
2019-02-10T08:02:56.198Z,55.03
2019-02-10T08:06:02.652Z,58.87
2019-02-10T08:08:51.538Z,79.23
2019-02-10T08:11:50.854Z,109.53
2019-02-10T08:14:51.442Z,76.27
2019-02-10T08:17:47.115Z,72.13
2019-02-10T08:20:46.755Z,63.27
2019-02-10T08:23:53.824Z,61.70
2019-02-10T08:26:36.309Z,72.30
2019-02-10T08:29:35.934Z,64.77
2019-02-10T08:32:42.663Z,62.17
2019-02-10T08:35:53.105Z,61.60
2019-02-10T08:38:39.796Z,57.97
2019-02-10T08:41:32.216Z,55.83
2019-02-10T08:44:41.003Z,58.87
2019-02-10T08:47:52.186Z,57.70
2019-02-10T08:51:04.149Z,56.43
2019-02-10T08:53:39.311Z,59.37
2019-02-10T08:56:12.449Z,64.70
2019-02-10T08:58:44.554Z,66.93
2019-02-10T09:01:16.115Z,58.23
2019-02-10T09:03:47.713Z,63.27
2019-02-10T09:06:19.210Z,51.50
2019-02-10T09:08:50.831Z,55.10
2019-02-10T09:11:22.549Z,52.20
2019-02-10T09:13:55.507Z,104.33
2019-02-10T09:16:27.798Z,61.10
2019-02-10T09:18:59.240Z,344.70
2019-02-10T09:21:31.966Z,122.37
2019-02-10T09:24:05.658Z,71.07
2019-02-10T09:26:37.141Z,86.67
2019-02-10T09:29:08.603Z,71.73
2019-02-10T09:31:40.239Z,156.90
2019-02-10T09:34:12.567Z,83.87
2019-02-10T09:36:44.692Z,62.70
2019-02-10T09:39:16.349Z,57.00
2019-02-10T09:41:48.028Z,64.90
2019-02-10T09:44:19.448Z,57.57
2019-02-10T09:46:51.041Z,63.53
2019-02-10T09:49:22.671Z,49.57
2019-02-10T09:51:54.115Z,47.60
2019-02-10T09:54:26.288Z,47.73
2019-02-10T09:56:58.070Z,47.80
2019-02-10T09:59:30.114Z,48.27
2019-02-10T10:02:01.713Z,47.17
2019-02-10T10:04:33.866Z,49.13
2019-02-10T10:07:05.822Z,42.37
2019-02-10T10:09:49.242Z,44.33
2019-02-10T10:12:20.838Z,62.37
2019-02-10T10:14:52.773Z,46.73
2019-02-10T10:17:24.801Z,63.83
2019-02-10T10:19:56.507Z,50.60
2019-02-10T10:22:29.046Z,50.07
2019-02-10T10:25:00.785Z,53.83
2019-02-10T10:27:33.331Z,62.70
2019-02-10T10:30:05.330Z,43.70
2019-02-10T10:32:37.580Z,54.37
2019-02-10T10:35:09.401Z,49.80
2019-02-10T10:37:41.025Z,45.37
2019-02-10T10:40:12.566Z,52.97
2019-02-10T10:42:43.995Z,54.47
2019-02-10T10:45:15.706Z,59.70
2019-02-10T10:47:48.443Z,54.03
2019-02-10T10:50:20.119Z,64.10
2019-02-10T10:52:51.686Z,70.57
2019-02-10T10:55:23.412Z,80.97
2019-02-10T10:57:54.716Z,62.17
2019-02-10T11:00:26.241Z,55.27
2019-02-10T11:02:57.573Z,56.20
2019-02-10T11:05:29.139Z,77.43
2019-02-10T11:08:00.602Z,64.50
2019-02-10T11:10:32.107Z,72.70
2019-02-10T11:13:03.856Z,63.70
2019-02-10T11:15:36.245Z,62.83
2019-02-10T11:18:07.774Z,62.93
2019-02-10T11:20:39.190Z,77.23
2019-02-10T11:23:10.813Z,67.77
2019-02-10T11:25:42.243Z,60.40
2019-02-10T11:28:13.602Z,71.30
2019-02-10T11:30:45.088Z,67.43
2019-02-10T11:33:16.640Z,63.60
2019-02-10T11:35:48.537Z,60.83
2019-02-10T11:38:32.213Z,65.40
2019-02-10T11:41:03.849Z,74.10
2019-02-10T11:43:35.211Z,73.63
2019-02-10T11:46:06.911Z,78.17
2019-02-10T11:48:39.686Z,72.10
2019-02-10T11:51:11.507Z,63.27
2019-02-10T11:53:42.854Z,62.63
2019-02-10T11:56:18.137Z,67.37
2019-02-10T11:58:50.734Z,77.10
2019-02-10T12:01:22.575Z,69.40
2019-02-10T12:03:54.933Z,73.30
2019-02-10T12:06:26.271Z,75.33
2019-02-10T12:08:57.705Z,81.03
2019-02-10T12:11:29.381Z,75.43
2019-02-10T12:14:00.979Z,78.70
2019-02-10T12:16:32.620Z,88.93
2019-02-10T12:19:04.302Z,89.57
2019-02-10T12:21:35.779Z,80.93
2019-02-10T12:24:13.550Z,73.50
2019-02-10T12:26:50.272Z,63.47
2019-02-10T12:29:22.594Z,69.93
2019-02-10T12:31:53.962Z,66.47
2019-02-10T12:34:25.837Z,67.60
2019-02-10T12:36:57.253Z,66.47
2019-02-10T12:39:28.682Z,65.83
2019-02-10T12:42:00.246Z,66.07
2019-02-10T12:44:31.716Z,68.43
2019-02-10T12:47:04.085Z,68.50
2019-02-10T12:49:35.619Z,72.40
2019-02-10T12:52:08.416Z,66.83
2019-02-10T12:54:40.214Z,66.37
2019-02-10T12:57:11.674Z,67.40
2019-02-10T12:59:43.180Z,64.93
2019-02-10T13:02:14.730Z,62.63
2019-02-10T13:04:46.293Z,71.63
2019-02-10T13:07:17.961Z,68.87
2019-02-10T13:09:50.310Z,65.73
2019-02-10T13:12:21.784Z,68.13
2019-02-10T13:14:53.431Z,64.57
2019-02-10T13:17:26.266Z,64.50
2019-02-10T13:19:58.479Z,68.77
2019-02-10T13:22:30.251Z,66.77
2019-02-10T13:25:02.166Z,71.10
2019-02-10T13:27:33.670Z,70.80
2019-02-10T13:30:06.017Z,75.90
2019-02-10T13:32:37.663Z,85.67
2019-02-10T13:35:09.262Z,70.13
2019-02-10T13:37:40.791Z,82.83
2019-02-10T13:40:16.753Z,82.27
2019-02-10T13:42:48.400Z,82.57
2019-02-10T13:45:20.228Z,66.13
2019-02-10T13:47:51.870Z,61.77
2019-02-10T13:50:23.450Z,64.97
2019-02-10T13:52:55.070Z,56.53
2019-02-10T13:55:26.560Z,53.70
2019-02-10T13:57:59.276Z,58.33
2019-02-10T14:00:30.829Z,64.23
2019-02-10T14:03:02.239Z,62.20
2019-02-10T14:05:33.859Z,61.03
2019-02-10T14:08:05.250Z,64.90
2019-02-10T14:10:36.742Z,64.33
2019-02-10T14:13:08.915Z,66.73
2019-02-10T14:15:40.678Z,73.17
2019-02-10T14:18:12.443Z,72.10
2019-02-10T14:20:44.080Z,58.30
2019-02-10T14:23:15.463Z,69.23
2019-02-10T14:25:46.951Z,58.33
2019-02-10T14:28:19.076Z,56.07
2019-02-10T14:30:51.842Z,61.27
2019-02-10T14:33:23.609Z,61.47
2019-02-10T14:35:55.373Z,68.87
2019-02-10T14:38:26.914Z,66.20
2019-02-10T14:40:58.576Z,67.33
2019-02-10T14:43:30.238Z,85.30
2019-02-10T14:46:01.996Z,68.10
2019-02-10T14:48:33.627Z,69.53
2019-02-10T14:51:05.328Z,69.40
2019-02-10T14:53:37.539Z,66.63
2019-02-10T14:56:09.753Z,77.70
2019-02-10T14:58:43.206Z,69.60
2019-02-10T15:01:14.672Z,62.07
2019-02-10T15:03:46.066Z,71.50
2019-02-10T15:06:17.510Z,82.90
2019-02-10T15:08:49.113Z,85.87
2019-02-10T15:11:21.739Z,87.73
2019-02-10T15:13:53.487Z,89.83
2019-02-10T15:16:26.336Z,83.77
2019-02-10T15:18:57.883Z,90.00
2019-02-10T15:21:29.494Z,98.87
2019-02-10T15:24:01.145Z,108.60
2019-02-10T15:26:32.720Z,98.90
2019-02-10T15:29:04.167Z,100.17
2019-02-10T15:31:36.425Z,156.63
2019-02-10T15:34:07.902Z,184.50
2019-02-10T15:36:39.752Z,159.23
2019-02-10T15:39:11.558Z,136.90
2019-02-10T15:41:43.093Z,131.40
2019-02-10T15:44:14.463Z,125.53
2019-02-10T15:46:46.030Z,136.40
2019-02-10T15:49:17.543Z,135.90
2019-02-10T15:51:49.195Z,150.00
2019-02-10T15:54:20.649Z,138.83
2019-02-10T15:56:52.744Z,183.43
2019-02-10T15:59:24.041Z,233.87
2019-02-10T16:01:55.586Z,275.40
2019-02-10T16:04:26.874Z,252.23
2019-02-10T16:06:58.472Z,244.27
2019-02-10T16:09:30.063Z,192.07
2019-02-10T16:12:03.094Z,197.70
2019-02-10T16:14:34.858Z,196.03
2019-02-10T16:17:06.549Z,203.23
2019-02-10T16:19:56.940Z,174.00
2019-02-10T16:22:28.615Z,178.63
2019-02-10T16:25:00.774Z,177.33
2019-02-10T16:27:32.928Z,159.97
2019-02-10T16:30:05.547Z,167.10
2019-02-10T16:32:37.209Z,163.05
2019-02-10T16:35:09.343Z,160.17
2019-02-10T16:37:41.911Z,135.28
2019-02-10T16:40:17.109Z,135.25
2019-02-10T16:42:49.884Z,150.18
2019-02-10T16:45:21.467Z,139.92
2019-02-10T16:47:53.070Z,105.07
2019-02-10T16:50:24.838Z,123.95
2019-02-10T16:52:56.710Z,154.57
2019-02-10T16:55:28.529Z,152.78
2019-02-10T16:58:00.897Z,155.15
2019-02-10T17:00:33.275Z,162.53
2019-02-10T17:03:05.057Z,181.55
2019-02-10T17:05:36.865Z,162.45
2019-02-10T17:08:08.676Z,170.45
2019-02-10T17:10:40.373Z,161.92
2019-02-10T17:13:12.241Z,150.42
2019-02-10T17:15:44.007Z,127.02
2019-02-10T17:18:15.841Z,110.83
2019-02-10T17:20:47.744Z,111.22
2019-02-10T17:23:19.887Z,112.42
2019-02-10T17:25:51.847Z,96.22
2019-02-10T17:28:23.500Z,97.60
2019-02-10T17:30:55.167Z,109.57
2019-02-10T17:33:26.973Z,106.30
2019-02-10T17:35:58.817Z,111.00
2019-02-10T17:38:31.897Z,110.32
2019-02-10T17:41:26.986Z,130.70
2019-02-10T17:43:59.997Z,127.60
2019-02-10T17:46:31.575Z,125.70
2019-02-10T17:49:04.459Z,133.87
2019-02-10T17:51:36.180Z,121.15
2019-02-10T17:54:07.847Z,122.13
2019-02-10T17:56:39.455Z,118.42
2019-02-10T17:59:11.344Z,127.22
2019-02-10T18:01:43.528Z,126.40
2019-02-10T18:04:15.221Z,129.72
2019-02-10T18:06:46.566Z,129.65
2019-02-10T18:09:18.011Z,137.47
2019-02-10T18:11:49.600Z,140.62
2019-02-10T18:14:47.034Z,127.22
2019-02-10T18:17:24.405Z,125.12
2019-02-10T18:20:17.382Z,137.25
2019-02-10T18:23:17.205Z,145.25
2019-02-10T18:26:06.557Z,142.50
2019-02-10T18:29:03.482Z,122.60
2019-02-10T18:31:43.846Z,123.00
2019-02-10T18:34:25.338Z,120.57
2019-02-10T18:37:15.487Z,126.62
2019-02-10T18:39:55.642Z,120.55
2019-02-10T18:42:52.234Z,120.62
2019-02-10T18:45:36.066Z,164.13
2019-02-10T18:48:19.805Z,121.15
2019-02-10T18:51:06.935Z,121.15
2019-02-10T18:53:57.371Z,108.83
2019-02-10T18:56:47.164Z,126.55
2019-02-10T18:59:41.646Z,127.50
2019-02-10T19:02:34.120Z,153.90
2019-02-10T19:05:24.795Z,168.30
2019-02-10T19:08:18.884Z,164.25
2019-02-10T19:11:00.688Z,156.65
2019-02-10T19:13:49.592Z,151.85
2019-02-10T19:16:42.876Z,145.35
2019-02-10T19:19:27.486Z,128.25
2019-02-10T19:22:16.499Z,126.67
2019-02-10T19:25:22.124Z,124.22
2019-02-10T19:28:31.028Z,118.35
2019-02-10T19:31:24.499Z,106.52
2019-02-10T19:34:18.151Z,123.22
2019-02-10T19:37:08.959Z,136.22
2019-02-10T19:40:09.015Z,127.50
2019-02-10T19:42:51.396Z,138.97
2019-02-10T19:45:47.481Z,140.43
2019-02-10T19:48:53.290Z,126.12
2019-02-10T19:51:44.001Z,131.25
2019-02-10T19:54:37.512Z,114.88
2019-02-10T19:57:28.006Z,115.95
2019-02-10T20:00:33.711Z,110.92
2019-02-10T20:03:35.933Z,110.55
2019-02-10T20:06:41.855Z,108.42
2019-02-10T20:09:41.601Z,110.50
2019-02-10T20:12:30.544Z,118.22
2019-02-10T20:15:19.368Z,121.75
2019-02-10T20:18:21.919Z,112.00
2019-02-10T20:21:22.338Z,135.10
2019-02-10T20:24:21.581Z,126.80
2019-02-10T20:27:11.789Z,123.00
2019-02-10T20:30:05.107Z,122.72
2019-02-10T20:33:04.529Z,127.92
2019-02-10T20:36:00.785Z,120.92
2019-02-10T20:39:00.135Z,130.67
2019-02-10T20:41:57.315Z,122.60
2019-02-10T20:44:47.515Z,116.82
2019-02-10T20:47:34.451Z,130.82
2019-02-10T20:50:19.477Z,154.35
2019-02-10T20:53:21.694Z,181.02
2019-02-10T20:56:02.635Z,168.50
2019-02-10T20:58:52.198Z,185.07
2019-02-10T21:01:50.016Z,163.07
2019-02-10T21:04:32.616Z,155.22
2019-02-10T21:07:22.264Z,174.40
2019-02-10T21:10:10.424Z,160.20
2019-02-10T21:13:00.659Z,190.43
2019-02-10T21:15:57.082Z,148.13
2019-02-10T21:18:46.298Z,140.60
2019-02-10T21:21:51.563Z,146.45
2019-02-10T21:24:48.074Z,145.45
2019-02-10T21:27:41.409Z,158.37
2019-02-10T21:30:31.726Z,167.87
2019-02-10T21:33:24.749Z,174.72
2019-02-10T21:36:24.623Z,158.72
2019-02-10T21:39:17.539Z,166.37
2019-02-10T21:42:12.875Z,152.70
2019-02-10T21:45:13.725Z,150.55
2019-02-10T21:47:56.110Z,149.80
2019-02-10T21:50:27.573Z,146.72
2019-02-10T21:52:59.134Z,139.85
2019-02-10T21:55:30.710Z,154.70
2019-02-10T21:58:03.192Z,184.10
2019-02-10T22:00:34.718Z,192.32
2019-02-10T22:03:06.244Z,177.38
2019-02-10T22:05:37.833Z,154.30
2019-02-10T22:08:09.457Z,160.12
2019-02-10T22:10:40.811Z,144.35
2019-02-10T22:13:12.424Z,159.25
2019-02-10T22:15:43.747Z,150.27
2019-02-10T22:18:15.387Z,140.52
2019-02-10T22:20:47.066Z,142.22
2019-02-10T22:23:18.633Z,169.05
2019-02-10T22:25:50.122Z,193.17
2019-02-10T22:28:21.510Z,169.10
2019-02-10T22:30:53.243Z,165.77
2019-02-10T22:33:24.882Z,160.37
2019-02-10T22:35:56.252Z,143.75
2019-02-10T22:38:28.064Z,139.77
2019-02-10T22:41:00.368Z,152.95
2019-02-10T22:43:32.197Z,147.20
2019-02-10T22:46:03.796Z,140.65
2019-02-10T22:48:35.332Z,128.10
2019-02-10T22:51:06.909Z,125.78
2019-02-10T22:53:38.479Z,131.50
2019-02-10T22:56:10.168Z,123.87
2019-02-10T22:58:41.969Z,118.08
2019-02-10T23:01:13.479Z,121.17
2019-02-10T23:03:45.216Z,121.42
2019-02-10T23:06:16.803Z,121.15
2019-02-10T23:08:48.299Z,123.10
2019-02-10T23:11:19.941Z,124.90
2019-02-10T23:13:51.563Z,127.80
2019-02-10T23:16:23.737Z,121.65
2019-02-10T23:18:55.210Z,119.95
2019-02-10T23:21:26.851Z,129.32
2019-02-10T23:23:58.115Z,124.30
2019-02-10T23:26:29.703Z,123.60
2019-02-10T23:29:01.375Z,125.02
2019-02-10T23:31:32.702Z,124.75
2019-02-10T23:34:04.110Z,117.03
2019-02-10T23:36:35.627Z,116.15
2019-02-10T23:39:07.710Z,124.20
2019-02-10T23:41:39.829Z,120.67
2019-02-10T23:44:12.258Z,127.78
2019-02-10T23:46:44.043Z,120.37
2019-02-10T23:49:15.345Z,121.13
2019-02-10T23:51:46.837Z,122.82
2019-02-10T23:54:19.108Z,134.43
2019-02-10T23:56:51.671Z,136.95
2019-02-10T23:59:23.092Z,157.52
